sensor_id;sensor_type;location;lat;lon;timestamp;pressure;altitude;pressure_sealevel;temperature;humidity
64025;BME280;50266;57.446;26.936;2023-03-20T00:00:46;99425.81;;;4.87;100.0
64025;BME280;50266;57.446;26.936;2023-03-20T00:01:44;99429.5;;;4.86;100.0
64025;BME280;50266;57.446;26.936;2023-03-20T00:02:44;99428.19;;;4.82;100.0
64025;BME280;50266;57.446;26.936;2023-03-20T00:03:44;99426.41;;;4.7;100.0
64025;BME280;50266;57.446;26.936;2023-03-20T00:04:44;99426.2;;;4.61;100.0
64025;BME280;50266;57.446;26.936;2023-03-20T00:05:44;99421.77;;;4.71;100.0
64025;BME280;50266;57.446;26.936;2023-03-20T00:06:44;99417.55;;;4.75;100.0
64025;BME280;50266;57.446;26.936;2023-03-20T00:07:44;99421.25;;;4.44;100.0
64025;BME280;50266;57.446;26.936;2023-03-20T00:08:44;99421.47;;;4.33;100.0
64025;BME280;50266;57.446;26.936;2023-03-20T00:09:44;99418.81;;;4.23;100.0
64025;BME280;50266;57.446;26.936;2023-03-20T00:10:44;99419.97;;;4.27;100.0
64025;BME280;50266;57.446;26.936;2023-03-20T00:11:47;99413.93;;;4.14;100.0
64025;BME280;50266;57.446;26.936;2023-03-20T00:12:45;99409.09;;;4.24;100.0
64025;BME280;50266;57.446;26.936;2023-03-20T00:13:45;99415.02;;;4.3;100.0
64025;BME280;50266;57.446;26.936;2023-03-20T00:14:45;99412.69;;;4.35;100.0
64025;BME280;50266;57.446;26.936;2023-03-20T00:15:45;99411.85;;;4.1;100.0
64025;BME280;50266;57.446;26.936;2023-03-20T00:16:46;99412.49;;;4.17;100.0
64025;BME280;50266;57.446;26.936;2023-03-20T00:17:45;99414.0;;;4.03;100.0
64025;BME280;50266;57.446;26.936;2023-03-20T00:18:45;99410.5;;;4.1;100.0
64025;BME280;50266;57.446;26.936;2023-03-20T00:19:45;99410.05;;;4.14;100.0
64025;BME280;50266;57.446;26.936;2023-03-20T00:20:45;99407.64;;;4.11;100.0
64025;BME280;50266;57.446;26.936;2023-03-20T00:21:45;99410.85;;;4.05;100.0
64025;BME280;50266;57.446;26.936;2023-03-20T00:22:45;99409.11;;;4.05;100.0
64025;BME280;50266;57.446;26.936;2023-03-20T00:23:45;99404.8;;;3.91;100.0
64025;BME280;50266;57.446;26.936;2023-03-20T00:24:45;99399.73;;;4.18;100.0
64025;BME280;50266;57.446;26.936;2023-03-20T00:25:45;99396.48;;;4.17;100.0
64025;BME280;50266;57.446;26.936;2023-03-20T00:26:45;99396.04;;;4.11;100.0
64025;BME280;50266;57.446;26.936;2023-03-20T00:27:45;99394.12;;;4.1;100.0
64025;BME280;50266;57.446;26.936;2023-03-20T00:28:48;99393.42;;;4.05;100.0
64025;BME280;50266;57.446;26.936;2023-03-20T00:29:45;99393.79;;;4.21;100.0
64025;BME280;50266;57.446;26.936;2023-03-20T00:30:45;99394.58;;;4.07;100.0
64025;BME280;50266;57.446;26.936;2023-03-20T00:31:45;99394.88;;;3.95;100.0
64025;BME280;50266;57.446;26.936;2023-03-20T00:32:45;99393.34;;;3.95;100.0
64025;BME280;50266;57.446;26.936;2023-03-20T00:33:45;99398.11;;;4.1;100.0
64025;BME280;50266;57.446;26.936;2023-03-20T00:34:45;99397.02;;;4.05;100.0
64025;BME280;50266;57.446;26.936;2023-03-20T00:35:45;99392.52;;;3.98;100.0
64025;BME280;50266;57.446;26.936;2023-03-20T00:36:45;99387.19;;;4.07;100.0
64025;BME280;50266;57.446;26.936;2023-03-20T00:37:45;99386.77;;;4.14;100.0
64025;BME280;50266;57.446;26.936;2023-03-20T00:38:45;99387.19;;;4.08;100.0
64025;BME280;50266;57.446;26.936;2023-03-20T00:39:45;99383.08;;;4.08;100.0
64025;BME280;50266;57.446;26.936;2023-03-20T00:40:45;99383.8;;;4.06;100.0
64025;BME280;50266;57.446;26.936;2023-03-20T00:42:03;99385.02;;;3.95;100.0
64025;BME280;50266;57.446;26.936;2023-03-20T00:42:47;99383.21;;;4.07;100.0
64025;BME280;50266;57.446;26.936;2023-03-20T00:43:47;99384.66;;;4.08;100.0
64025;BME280;50266;57.446;26.936;2023-03-20T00:44:47;99386.3;;;3.94;100.0
64025;BME280;50266;57.446;26.936;2023-03-20T00:45:46;99387.82;;;4.1;100.0
64025;BME280;50266;57.446;26.936;2023-03-20T00:46:47;99387.9;;;4.03;100.0
64025;BME280;50266;57.446;26.936;2023-03-20T00:47:47;99385.58;;;4.06;100.0
64025;BME280;50266;57.446;26.936;2023-03-20T00:48:46;99387.22;;;4.06;100.0
64025;BME280;50266;57.446;26.936;2023-03-20T00:49:47;99387.83;;;3.99;100.0
64025;BME280;50266;57.446;26.936;2023-03-20T00:50:46;99384.92;;;3.94;100.0
64025;BME280;50266;57.446;26.936;2023-03-20T00:51:46;99385.0;;;4.0;100.0
64025;BME280;50266;57.446;26.936;2023-03-20T00:52:46;99386.31;;;3.98;100.0
64025;BME280;50266;57.446;26.936;2023-03-20T00:53:46;99383.56;;;4.02;100.0
64025;BME280;50266;57.446;26.936;2023-03-20T00:54:46;99384.17;;;3.98;100.0
64025;BME280;50266;57.446;26.936;2023-03-20T00:55:46;99384.38;;;4.0;100.0
64025;BME280;50266;57.446;26.936;2023-03-20T00:57:49;99381.3;;;4.08;100.0
64025;BME280;50266;57.446;26.936;2023-03-20T00:58:48;99379.48;;;4.19;100.0
64025;BME280;50266;57.446;26.936;2023-03-20T01:00:02;99379.31;;;4.12;100.0
64025;BME280;50266;57.446;26.936;2023-03-20T01:00:49;99382.38;;;4.06;100.0
64025;BME280;50266;57.446;26.936;2023-03-20T01:01:49;99383.11;;;3.95;100.0
64025;BME280;50266;57.446;26.936;2023-03-20T01:02:52;99379.58;;;3.88;100.0
64025;BME280;50266;57.446;26.936;2023-03-20T01:03:49;99379.05;;;3.84;100.0
64025;BME280;50266;57.446;26.936;2023-03-20T01:04:49;99377.12;;;3.81;100.0
64025;BME280;50266;57.446;26.936;2023-03-20T01:05:50;99378.77;;;3.92;100.0
64025;BME280;50266;57.446;26.936;2023-03-20T01:06:49;99377.22;;;3.89;100.0
64025;BME280;50266;57.446;26.936;2023-03-20T01:07:50;99371.49;;;3.99;100.0
64025;BME280;50266;57.446;26.936;2023-03-20T01:08:49;99375.67;;;4.02;100.0
64025;BME280;50266;57.446;26.936;2023-03-20T01:09:50;99373.95;;;3.85;100.0
64025;BME280;50266;57.446;26.936;2023-03-20T01:10:50;99368.77;;;3.88;100.0
64025;BME280;50266;57.446;26.936;2023-03-20T01:11:50;99367.89;;;3.79;100.0
64025;BME280;50266;57.446;26.936;2023-03-20T01:12:50;99362.49;;;3.77;100.0
64025;BME280;50266;57.446;26.936;2023-03-20T01:13:50;99365.12;;;3.77;100.0
64025;BME280;50266;57.446;26.936;2023-03-20T01:14:54;99362.03;;;3.77;100.0
64025;BME280;50266;57.446;26.936;2023-03-20T01:15:51;99361.47;;;3.64;100.0
64025;BME280;50266;57.446;26.936;2023-03-20T01:16:50;99360.43;;;3.6;100.0
64025;BME280;50266;57.446;26.936;2023-03-20T01:17:50;99360.66;;;3.5;100.0
64025;BME280;50266;57.446;26.936;2023-03-20T01:18:51;99358.77;;;3.49;100.0
64025;BME280;50266;57.446;26.936;2023-03-20T01:19:52;99356.16;;;3.23;100.0
64025;BME280;50266;57.446;26.936;2023-03-20T01:20:51;99352.59;;;2.94;100.0
64025;BME280;50266;57.446;26.936;2023-03-20T01:21:50;99350.01;;;3.02;100.0
64025;BME280;50266;57.446;26.936;2023-03-20T01:22:50;99354.3;;;3.19;100.0
64025;BME280;50266;57.446;26.936;2023-03-20T01:23:51;99351.52;;;3.33;100.0
64025;BME280;50266;57.446;26.936;2023-03-20T01:24:51;99351.62;;;3.41;100.0
64025;BME280;50266;57.446;26.936;2023-03-20T01:25:51;99351.6;;;3.16;100.0
64025;BME280;50266;57.446;26.936;2023-03-20T01:26:51;99347.81;;;3.7;100.0
64025;BME280;50266;57.446;26.936;2023-03-20T01:27:51;99348.61;;;3.62;100.0
64025;BME280;50266;57.446;26.936;2023-03-20T01:28:51;99347.08;;;3.64;100.0
64025;BME280;50266;57.446;26.936;2023-03-20T01:29:51;99347.25;;;3.68;100.0
64025;BME280;50266;57.446;26.936;2023-03-20T01:30:51;99345.08;;;3.8;100.0
64025;BME280;50266;57.446;26.936;2023-03-20T01:31:51;99346.86;;;3.92;100.0
64025;BME280;50266;57.446;26.936;2023-03-20T01:32:51;99345.87;;;3.9;100.0
64025;BME280;50266;57.446;26.936;2023-03-20T01:33:51;99344.58;;;3.88;100.0
64025;BME280;50266;57.446;26.936;2023-03-20T01:34:51;99343.39;;;3.87;100.0
64025;BME280;50266;57.446;26.936;2023-03-20T01:35:51;99343.8;;;3.79;100.0
64025;BME280;50266;57.446;26.936;2023-03-20T01:36:54;99345.35;;;3.82;100.0
64025;BME280;50266;57.446;26.936;2023-03-20T01:37:52;99346.77;;;3.8;100.0
64025;BME280;50266;57.446;26.936;2023-03-20T01:38:54;99348.38;;;3.71;100.0
64025;BME280;50266;57.446;26.936;2023-03-20T01:39:52;99344.36;;;3.68;100.0
64025;BME280;50266;57.446;26.936;2023-03-20T01:40:58;99343.62;;;3.74;100.0
64025;BME280;50266;57.446;26.936;2023-03-20T01:41:56;99343.31;;;3.82;100.0
64025;BME280;50266;57.446;26.936;2023-03-20T01:42:57;99339.45;;;3.89;100.0
64025;BME280;50266;57.446;26.936;2023-03-20T01:43:57;99342.25;;;3.78;100.0
64025;BME280;50266;57.446;26.936;2023-03-20T01:44:56;99345.16;;;3.72;100.0
64025;BME280;50266;57.446;26.936;2023-03-20T01:45:59;99341.42;;;3.64;100.0
64025;BME280;50266;57.446;26.936;2023-03-20T01:46:57;99340.91;;;3.59;100.0
64025;BME280;50266;57.446;26.936;2023-03-20T01:47:57;99342.97;;;3.54;100.0
64025;BME280;50266;57.446;26.936;2023-03-20T01:48:59;99341.0;;;3.54;100.0
64025;BME280;50266;57.446;26.936;2023-03-20T01:51:02;99341.53;;;3.47;100.0
64025;BME280;50266;57.446;26.936;2023-03-20T01:52:02;99340.13;;;3.35;100.0
64025;BME280;50266;57.446;26.936;2023-03-20T01:53:06;99340.08;;;3.31;100.0
64025;BME280;50266;57.446;26.936;2023-03-20T01:54:05;99337.04;;;3.42;100.0
64025;BME280;50266;57.446;26.936;2023-03-20T01:55:04;99336.47;;;3.45;100.0
64025;BME280;50266;57.446;26.936;2023-03-20T01:56:04;99337.47;;;3.59;100.0
64025;BME280;50266;57.446;26.936;2023-03-20T01:57:11;99335.47;;;3.62;100.0
64025;BME280;50266;57.446;26.936;2023-03-20T01:58:12;99334.64;;;3.59;100.0
64025;BME280;50266;57.446;26.936;2023-03-20T01:59:15;99334.07;;;3.66;100.0
64025;BME280;50266;57.446;26.936;2023-03-20T02:00:14;99333.39;;;3.69;100.0
64025;BME280;50266;57.446;26.936;2023-03-20T02:01:13;99332.83;;;3.67;100.0
64025;BME280;50266;57.446;26.936;2023-03-20T02:02:15;99333.72;;;3.58;100.0
64025;BME280;50266;57.446;26.936;2023-03-20T02:03:13;99333.88;;;3.57;100.0
64025;BME280;50266;57.446;26.936;2023-03-20T02:04:13;99332.2;;;3.57;100.0
64025;BME280;50266;57.446;26.936;2023-03-20T02:05:14;99332.06;;;3.55;100.0
64025;BME280;50266;57.446;26.936;2023-03-20T02:06:13;99333.09;;;3.48;100.0
64025;BME280;50266;57.446;26.936;2023-03-20T02:07:14;99330.67;;;3.43;100.0
64025;BME280;50266;57.446;26.936;2023-03-20T02:08:18;99327.31;;;3.41;100.0
64025;BME280;50266;57.446;26.936;2023-03-20T02:09:16;99326.91;;;3.46;100.0
64025;BME280;50266;57.446;26.936;2023-03-20T02:10:16;99324.14;;;3.43;100.0
64025;BME280;50266;57.446;26.936;2023-03-20T02:11:17;99323.08;;;3.4;100.0
64025;BME280;50266;57.446;26.936;2023-03-20T02:12:16;99321.08;;;3.33;100.0
64025;BME280;50266;57.446;26.936;2023-03-20T02:13:16;99318.77;;;3.3;100.0
64025;BME280;50266;57.446;26.936;2023-03-20T02:14:16;99321.6;;;3.4;100.0
64025;BME280;50266;57.446;26.936;2023-03-20T02:15:16;99316.95;;;3.44;100.0
64025;BME280;50266;57.446;26.936;2023-03-20T02:16:16;99320.73;;;3.35;100.0
64025;BME280;50266;57.446;26.936;2023-03-20T02:17:16;99319.0;;;3.37;100.0
64025;BME280;50266;57.446;26.936;2023-03-20T02:18:16;99319.78;;;3.37;100.0
64025;BME280;50266;57.446;26.936;2023-03-20T02:19:24;99318.34;;;3.36;100.0
64025;BME280;50266;57.446;26.936;2023-03-20T02:20:26;99321.83;;;3.31;100.0
64025;BME280;50266;57.446;26.936;2023-03-20T02:30:08;99310.2;;;2.84;100.0
64025;BME280;50266;57.446;26.936;2023-03-20T02:35:09;99305.09;;;2.92;100.0
64025;BME280;50266;57.446;26.936;2023-03-20T02:36:21;99302.47;;;2.8;100.0
64025;BME280;50266;57.446;26.936;2023-03-20T02:39:20;99303.35;;;2.92;100.0
64025;BME280;50266;57.446;26.936;2023-03-20T02:41:30;99303.97;;;2.91;100.0
64025;BME280;50266;57.446;26.936;2023-03-20T02:43:31;99298.08;;;2.87;100.0
64025;BME280;50266;57.446;26.936;2023-03-20T02:45:43;99293.66;;;2.83;100.0
64025;BME280;50266;57.446;26.936;2023-03-20T02:47:44;99297.52;;;2.93;100.0
64025;BME280;50266;57.446;26.936;2023-03-20T02:48:43;99295.27;;;2.94;100.0
64025;BME280;50266;57.446;26.936;2023-03-20T02:49:48;99292.92;;;3.04;100.0
64025;BME280;50266;57.446;26.936;2023-03-20T02:50:50;99289.79;;;3.09;100.0
64025;BME280;50266;57.446;26.936;2023-03-20T02:52:54;99292.14;;;3.06;100.0
64025;BME280;50266;57.446;26.936;2023-03-20T02:54:12;99288.56;;;3.07;100.0
64025;BME280;50266;57.446;26.936;2023-03-20T02:57:05;99283.45;;;2.96;100.0
64025;BME280;50266;57.446;26.936;2023-03-20T02:58:09;99283.19;;;2.93;100.0
64025;BME280;50266;57.446;26.936;2023-03-20T03:00:22;99284.09;;;2.98;100.0
64025;BME280;50266;57.446;26.936;2023-03-20T03:01:10;99280.27;;;2.99;100.0
64025;BME280;50266;57.446;26.936;2023-03-20T03:02:11;99275.0;;;2.97;100.0
64025;BME280;50266;57.446;26.936;2023-03-20T03:04:14;99281.27;;;3.04;100.0
64025;BME280;50266;57.446;26.936;2023-03-20T03:05:17;99280.29;;;2.91;100.0
64025;BME280;50266;57.446;26.936;2023-03-20T03:06:19;99275.93;;;2.92;100.0
64025;BME280;50266;57.446;26.936;2023-03-20T03:07:16;99273.69;;;2.91;100.0
64025;BME280;50266;57.446;26.936;2023-03-20T03:08:17;99263.81;;;2.84;100.0
64025;BME280;50266;57.446;26.936;2023-03-20T03:11:23;99266.72;;;3.09;100.0
64025;BME280;50266;57.446;26.936;2023-03-20T03:12:24;99264.88;;;3.09;100.0
64025;BME280;50266;57.446;26.936;2023-03-20T03:13:25;99267.2;;;3.23;100.0
64025;BME280;50266;57.446;26.936;2023-03-20T03:15:26;99260.19;;;3.28;100.0
64025;BME280;50266;57.446;26.936;2023-03-20T03:16:28;99259.6;;;3.29;100.0
64025;BME280;50266;57.446;26.936;2023-03-20T03:17:26;99260.7;;;3.26;100.0
64025;BME280;50266;57.446;26.936;2023-03-20T03:18:26;99255.86;;;3.31;100.0
64025;BME280;50266;57.446;26.936;2023-03-20T03:19:26;99262.08;;;3.23;100.0
64025;BME280;50266;57.446;26.936;2023-03-20T03:20:30;99258.4;;;3.22;100.0
64025;BME280;50266;57.446;26.936;2023-03-20T03:21:27;99259.05;;;3.19;100.0
64025;BME280;50266;57.446;26.936;2023-03-20T03:22:27;99257.77;;;3.22;100.0
64025;BME280;50266;57.446;26.936;2023-03-20T03:23:31;99256.22;;;3.2;100.0
64025;BME280;50266;57.446;26.936;2023-03-20T03:24:36;99256.12;;;3.31;100.0
64025;BME280;50266;57.446;26.936;2023-03-20T03:25:33;99255.8;;;3.33;100.0
64025;BME280;50266;57.446;26.936;2023-03-20T03:26:33;99255.36;;;3.48;100.0
64025;BME280;50266;57.446;26.936;2023-03-20T03:29:36;99252.11;;;3.39;100.0
64025;BME280;50266;57.446;26.936;2023-03-20T03:30:36;99247.62;;;3.59;100.0
64025;BME280;50266;57.446;26.936;2023-03-20T03:31:36;99248.24;;;3.53;100.0
64025;BME280;50266;57.446;26.936;2023-03-20T03:32:46;99249.24;;;3.45;100.0
64025;BME280;50266;57.446;26.936;2023-03-20T03:33:40;99252.68;;;3.55;100.0
64025;BME280;50266;57.446;26.936;2023-03-20T03:34:39;99249.21;;;3.62;100.0
64025;BME280;50266;57.446;26.936;2023-03-20T03:35:39;99251.12;;;3.52;100.0
64025;BME280;50266;57.446;26.936;2023-03-20T03:38:49;99251.55;;;3.62;100.0
64025;BME280;50266;57.446;26.936;2023-03-20T03:39:49;99254.13;;;3.58;100.0
64025;BME280;50266;57.446;26.936;2023-03-20T03:43:00;99274.03;;;3.45;100.0
64025;BME280;50266;57.446;26.936;2023-03-20T03:44:10;99279.45;;;3.45;100.0
64025;BME280;50266;57.446;26.936;2023-03-20T03:45:09;99270.24;;;3.51;100.0
64025;BME280;50266;57.446;26.936;2023-03-20T03:46:16;99268.59;;;3.38;100.0
64025;BME280;50266;57.446;26.936;2023-03-20T03:47:15;99256.96;;;3.25;100.0
64025;BME280;50266;57.446;26.936;2023-03-20T03:48:17;99245.73;;;3.16;100.0
64025;BME280;50266;57.446;26.936;2023-03-20T03:49:17;99245.19;;;3.08;100.0
64025;BME280;50266;57.446;26.936;2023-03-20T03:50:25;99246.36;;;3.16;100.0
64025;BME280;50266;57.446;26.936;2023-03-20T03:51:25;99241.86;;;3.15;100.0
64025;BME280;50266;57.446;26.936;2023-03-20T03:52:23;99236.34;;;3.15;100.0
64025;BME280;50266;57.446;26.936;2023-03-20T03:53:30;99231.03;;;3.15;100.0
64025;BME280;50266;57.446;26.936;2023-03-20T03:54:29;99233.09;;;3.14;100.0
64025;BME280;50266;57.446;26.936;2023-03-20T03:55:29;99235.8;;;3.17;100.0
64025;BME280;50266;57.446;26.936;2023-03-20T03:56:28;99230.41;;;3.15;100.0
64025;BME280;50266;57.446;26.936;2023-03-20T03:57:39;99230.23;;;3.13;100.0
64025;BME280;50266;57.446;26.936;2023-03-20T03:58:35;99224.42;;;3.11;100.0
64025;BME280;50266;57.446;26.936;2023-03-20T03:59:36;99221.42;;;3.19;100.0
64025;BME280;50266;57.446;26.936;2023-03-20T04:00:33;99221.2;;;3.19;100.0
64025;BME280;50266;57.446;26.936;2023-03-20T04:01:33;99221.92;;;3.19;100.0
64025;BME280;50266;57.446;26.936;2023-03-20T04:02:33;99217.5;;;3.24;100.0
64025;BME280;50266;57.446;26.936;2023-03-20T04:03:35;99220.44;;;3.31;100.0
64025;BME280;50266;57.446;26.936;2023-03-20T04:04:34;99214.37;;;3.31;100.0
64025;BME280;50266;57.446;26.936;2023-03-20T04:05:34;99214.88;;;3.26;100.0
64025;BME280;50266;57.446;26.936;2023-03-20T04:06:33;99211.95;;;3.36;100.0
64025;BME280;50266;57.446;26.936;2023-03-20T04:07:33;99217.2;;;3.32;100.0
64025;BME280;50266;57.446;26.936;2023-03-20T04:08:33;99216.2;;;3.26;100.0
64025;BME280;50266;57.446;26.936;2023-03-20T04:09:33;99210.22;;;3.27;100.0
64025;BME280;50266;57.446;26.936;2023-03-20T04:10:33;99212.0;;;3.19;100.0
64025;BME280;50266;57.446;26.936;2023-03-20T04:11:33;99208.33;;;3.19;100.0
64025;BME280;50266;57.446;26.936;2023-03-20T04:12:37;99209.19;;;3.22;100.0
64025;BME280;50266;57.446;26.936;2023-03-20T04:13:34;99204.31;;;3.17;100.0
64025;BME280;50266;57.446;26.936;2023-03-20T04:14:34;99205.66;;;3.15;100.0
64025;BME280;50266;57.446;26.936;2023-03-20T04:15:34;99206.6;;;3.13;100.0
64025;BME280;50266;57.446;26.936;2023-03-20T04:16:34;99207.22;;;3.36;100.0
64025;BME280;50266;57.446;26.936;2023-03-20T04:17:34;99205.89;;;3.43;100.0
64025;BME280;50266;57.446;26.936;2023-03-20T04:18:34;99212.35;;;3.6;100.0
64025;BME280;50266;57.446;26.936;2023-03-20T04:19:34;99214.88;;;3.58;100.0
64025;BME280;50266;57.446;26.936;2023-03-20T04:20:34;99216.39;;;3.59;100.0
64025;BME280;50266;57.446;26.936;2023-03-20T04:21:34;99218.22;;;3.49;100.0
64025;BME280;50266;57.446;26.936;2023-03-20T04:22:34;99221.51;;;3.38;100.0
64025;BME280;50266;57.446;26.936;2023-03-20T04:23:34;99218.45;;;3.35;100.0
64025;BME280;50266;57.446;26.936;2023-03-20T04:24:34;99215.86;;;3.38;100.0
64025;BME280;50266;57.446;26.936;2023-03-20T04:25:34;99217.95;;;3.32;100.0
64025;BME280;50266;57.446;26.936;2023-03-20T04:26:34;99215.75;;;3.32;100.0
64025;BME280;50266;57.446;26.936;2023-03-20T04:27:34;99221.42;;;3.31;100.0
64025;BME280;50266;57.446;26.936;2023-03-20T04:28:34;99215.92;;;3.34;100.0
64025;BME280;50266;57.446;26.936;2023-03-20T04:29:34;99216.47;;;3.31;100.0
64025;BME280;50266;57.446;26.936;2023-03-20T04:30:34;99217.61;;;3.29;100.0
64025;BME280;50266;57.446;26.936;2023-03-20T04:31:34;99215.34;;;3.25;100.0
64025;BME280;50266;57.446;26.936;2023-03-20T04:32:34;99214.58;;;3.24;100.0
64025;BME280;50266;57.446;26.936;2023-03-20T04:33:34;99208.2;;;3.21;100.0
64025;BME280;50266;57.446;26.936;2023-03-20T04:34:34;99208.83;;;3.21;100.0
64025;BME280;50266;57.446;26.936;2023-03-20T04:35:34;99212.96;;;3.2;100.0
64025;BME280;50266;57.446;26.936;2023-03-20T04:36:34;99205.12;;;3.2;100.0
64025;BME280;50266;57.446;26.936;2023-03-20T04:37:34;99210.53;;;3.18;100.0
64025;BME280;50266;57.446;26.936;2023-03-20T04:38:34;99210.83;;;3.11;100.0
64025;BME280;50266;57.446;26.936;2023-03-20T04:39:34;99210.84;;;3.14;100.0
64025;BME280;50266;57.446;26.936;2023-03-20T04:40:34;99201.64;;;3.34;100.0
64025;BME280;50266;57.446;26.936;2023-03-20T04:41:34;99202.31;;;3.45;100.0
64025;BME280;50266;57.446;26.936;2023-03-20T04:42:34;99201.64;;;3.52;100.0
64025;BME280;50266;57.446;26.936;2023-03-20T04:43:34;99205.47;;;3.46;100.0
64025;BME280;50266;57.446;26.936;2023-03-20T04:44:34;99203.81;;;3.37;100.0
64025;BME280;50266;57.446;26.936;2023-03-20T04:45:34;99205.42;;;3.26;100.0
64025;BME280;50266;57.446;26.936;2023-03-20T04:46:34;99205.16;;;3.35;100.0
64025;BME280;50266;57.446;26.936;2023-03-20T04:47:34;99204.02;;;3.44;100.0
64025;BME280;50266;57.446;26.936;2023-03-20T04:48:34;99200.58;;;3.46;100.0
64025;BME280;50266;57.446;26.936;2023-03-20T04:49:34;99204.03;;;3.49;100.0
64025;BME280;50266;57.446;26.936;2023-03-20T04:50:34;99205.22;;;3.52;100.0
64025;BME280;50266;57.446;26.936;2023-03-20T04:51:34;99203.45;;;3.58;100.0
64025;BME280;50266;57.446;26.936;2023-03-20T04:52:34;99202.33;;;3.57;100.0
64025;BME280;50266;57.446;26.936;2023-03-20T04:53:34;99200.83;;;3.6;100.0
64025;BME280;50266;57.446;26.936;2023-03-20T04:54:34;99201.89;;;3.72;100.0
64025;BME280;50266;57.446;26.936;2023-03-20T04:55:34;99205.06;;;3.66;100.0
64025;BME280;50266;57.446;26.936;2023-03-20T04:56:34;99208.41;;;3.61;100.0
64025;BME280;50266;57.446;26.936;2023-03-20T04:57:34;99208.16;;;3.68;100.0
64025;BME280;50266;57.446;26.936;2023-03-20T04:58:34;99201.0;;;3.75;100.0
64025;BME280;50266;57.446;26.936;2023-03-20T04:59:34;99215.25;;;3.68;100.0
64025;BME280;50266;57.446;26.936;2023-03-20T05:00:34;99213.67;;;3.66;100.0
64025;BME280;50266;57.446;26.936;2023-03-20T05:01:34;99210.98;;;3.64;100.0
64025;BME280;50266;57.446;26.936;2023-03-20T05:02:34;99213.93;;;3.59;100.0
64025;BME280;50266;57.446;26.936;2023-03-20T05:03:34;99218.72;;;3.52;100.0
64025;BME280;50266;57.446;26.936;2023-03-20T05:04:34;99213.91;;;3.66;100.0
64025;BME280;50266;57.446;26.936;2023-03-20T05:05:34;99212.83;;;3.79;100.0
64025;BME280;50266;57.446;26.936;2023-03-20T05:06:34;99215.5;;;3.86;100.0
64025;BME280;50266;57.446;26.936;2023-03-20T05:07:35;99218.38;;;3.81;100.0
64025;BME280;50266;57.446;26.936;2023-03-20T05:08:35;99214.84;;;3.83;100.0
64025;BME280;50266;57.446;26.936;2023-03-20T05:09:35;99214.73;;;3.85;100.0
64025;BME280;50266;57.446;26.936;2023-03-20T05:10:35;99217.36;;;3.79;100.0
64025;BME280;50266;57.446;26.936;2023-03-20T05:11:35;99218.58;;;3.77;100.0
64025;BME280;50266;57.446;26.936;2023-03-20T05:12:35;99211.65;;;3.77;100.0
64025;BME280;50266;57.446;26.936;2023-03-20T05:13:35;99211.72;;;3.88;100.0
64025;BME280;50266;57.446;26.936;2023-03-20T05:14:35;99214.73;;;3.88;100.0
64025;BME280;50266;57.446;26.936;2023-03-20T05:15:35;99211.78;;;3.82;100.0
64025;BME280;50266;57.446;26.936;2023-03-20T05:16:35;99211.32;;;3.83;100.0
64025;BME280;50266;57.446;26.936;2023-03-20T05:17:35;99212.83;;;3.75;100.0
64025;BME280;50266;57.446;26.936;2023-03-20T05:18:35;99211.91;;;3.68;100.0
64025;BME280;50266;57.446;26.936;2023-03-20T05:19:35;99215.52;;;3.77;100.0
64025;BME280;50266;57.446;26.936;2023-03-20T05:20:35;99213.56;;;3.89;100.0
64025;BME280;50266;57.446;26.936;2023-03-20T05:21:35;99212.31;;;3.91;100.0
64025;BME280;50266;57.446;26.936;2023-03-20T05:22:35;99215.73;;;3.92;100.0
64025;BME280;50266;57.446;26.936;2023-03-20T05:23:35;99212.9;;;3.84;100.0
64025;BME280;50266;57.446;26.936;2023-03-20T05:24:35;99217.73;;;3.82;100.0
64025;BME280;50266;57.446;26.936;2023-03-20T05:25:35;99219.11;;;3.84;100.0
64025;BME280;50266;57.446;26.936;2023-03-20T05:26:35;99217.01;;;3.9;100.0
64025;BME280;50266;57.446;26.936;2023-03-20T05:27:35;99212.05;;;3.89;100.0
64025;BME280;50266;57.446;26.936;2023-03-20T05:28:35;99210.2;;;3.83;100.0
64025;BME280;50266;57.446;26.936;2023-03-20T05:29:35;99208.56;;;3.81;100.0
64025;BME280;50266;57.446;26.936;2023-03-20T05:30:35;99200.88;;;3.74;100.0
64025;BME280;50266;57.446;26.936;2023-03-20T05:31:35;99200.25;;;3.75;100.0
64025;BME280;50266;57.446;26.936;2023-03-20T05:32:35;99199.72;;;3.92;100.0
64025;BME280;50266;57.446;26.936;2023-03-20T05:33:35;99203.44;;;3.87;100.0
64025;BME280;50266;57.446;26.936;2023-03-20T05:34:35;99199.09;;;3.95;100.0
64025;BME280;50266;57.446;26.936;2023-03-20T05:35:35;99199.42;;;4.0;100.0
64025;BME280;50266;57.446;26.936;2023-03-20T05:36:35;99201.66;;;4.05;100.0
64025;BME280;50266;57.446;26.936;2023-03-20T05:37:35;99201.3;;;4.28;100.0
64025;BME280;50266;57.446;26.936;2023-03-20T05:38:35;99205.19;;;4.21;100.0
64025;BME280;50266;57.446;26.936;2023-03-20T05:39:35;99202.2;;;4.16;100.0
64025;BME280;50266;57.446;26.936;2023-03-20T05:40:35;99204.2;;;4.21;100.0
64025;BME280;50266;57.446;26.936;2023-03-20T05:41:35;99199.64;;;4.17;100.0
64025;BME280;50266;57.446;26.936;2023-03-20T05:42:35;99203.59;;;4.12;100.0
64025;BME280;50266;57.446;26.936;2023-03-20T05:43:35;99203.62;;;4.03;100.0
64025;BME280;50266;57.446;26.936;2023-03-20T05:44:35;99199.55;;;3.96;100.0
64025;BME280;50266;57.446;26.936;2023-03-20T05:45:35;99205.64;;;3.88;100.0
64025;BME280;50266;57.446;26.936;2023-03-20T05:46:35;99204.58;;;3.81;100.0
64025;BME280;50266;57.446;26.936;2023-03-20T05:47:35;99200.94;;;3.97;100.0
64025;BME280;50266;57.446;26.936;2023-03-20T05:48:35;99205.67;;;4.02;100.0
64025;BME280;50266;57.446;26.936;2023-03-20T05:49:35;99204.02;;;4.08;100.0
64025;BME280;50266;57.446;26.936;2023-03-20T05:50:35;99208.36;;;4.08;100.0
64025;BME280;50266;57.446;26.936;2023-03-20T05:51:35;99205.07;;;4.12;100.0
64025;BME280;50266;57.446;26.936;2023-03-20T05:52:35;99205.2;;;4.06;100.0
64025;BME280;50266;57.446;26.936;2023-03-20T05:53:35;99207.66;;;4.21;100.0
64025;BME280;50266;57.446;26.936;2023-03-20T05:54:35;99206.84;;;4.37;100.0
64025;BME280;50266;57.446;26.936;2023-03-20T05:55:35;99207.15;;;4.33;100.0
64025;BME280;50266;57.446;26.936;2023-03-20T05:56:35;99209.39;;;4.28;100.0